createdAt,value
2023-04-10T00:00:43.305Z,24.10
2023-04-10T00:03:22.178Z,24.80
2023-04-10T00:05:50.410Z,22.50
2023-04-10T00:08:18.092Z,21.90
2023-04-10T00:10:46.068Z,17.70
2023-04-10T00:13:14.926Z,19.70
2023-04-10T00:15:43.134Z,21.70
2023-04-10T00:18:11.111Z,24.50
2023-04-10T00:20:38.759Z,19.20
2023-04-10T00:23:06.434Z,20.20
2023-04-10T00:25:34.394Z,22.40
2023-04-10T00:28:02.151Z,24.10
2023-04-10T00:30:29.815Z,23.10
2023-04-10T00:32:57.791Z,22.10
2023-04-10T00:35:25.489Z,26.00
2023-04-10T00:37:54.621Z,22.10
2023-04-10T00:40:22.417Z,21.40
2023-04-10T00:42:50.055Z,23.30
2023-04-10T00:45:17.913Z,22.60
2023-04-10T00:47:45.768Z,21.90
2023-04-10T00:50:13.567Z,20.90
2023-04-10T00:52:41.246Z,24.50
2023-04-10T00:55:09.455Z,21.70
2023-04-10T00:57:37.591Z,21.90
2023-04-10T01:00:05.878Z,22.70
2023-04-10T01:02:33.636Z,22.70
2023-04-10T01:05:02.290Z,22.70
2023-04-10T01:07:44.914Z,23.90
2023-04-10T01:10:51.982Z,23.90
2023-04-10T01:13:23.663Z,21.50
2023-04-10T01:16:09.699Z,21.10
2023-04-10T01:18:42.233Z,22.90
2023-04-10T01:21:11.381Z,23.40
2023-04-10T01:24:11.878Z,23.50
2023-04-10T01:26:53.975Z,24.20
2023-04-10T01:29:23.467Z,23.80
2023-04-10T01:31:55.239Z,22.50
2023-04-10T01:34:28.327Z,22.30
2023-04-10T01:37:01.052Z,21.50
2023-04-10T01:39:29.366Z,24.90
2023-04-10T01:41:57.952Z,26.10
2023-04-10T01:44:28.225Z,25.50
2023-04-10T01:46:56.531Z,27.30
2023-04-10T01:49:25.391Z,28.40
2023-04-10T01:51:55.664Z,26.90
2023-04-10T01:54:23.396Z,25.00
2023-04-10T01:56:51.411Z,22.50
2023-04-10T01:59:19.583Z,23.90
2023-04-10T02:01:47.626Z,22.60
2023-04-10T02:04:15.673Z,19.60
2023-04-10T02:07:17.023Z,23.40
2023-04-10T02:09:58.814Z,20.20
2023-04-10T02:12:37.257Z,23.50
2023-04-10T02:15:06.662Z,22.80
2023-04-10T02:17:34.962Z,24.50
2023-04-10T02:20:03.737Z,22.20
2023-04-10T02:22:31.454Z,23.20
2023-04-10T02:24:59.249Z,21.20
2023-04-10T02:27:33.114Z,21.20
2023-04-10T02:30:02.468Z,20.50
2023-04-10T02:32:30.769Z,23.20
2023-04-10T02:34:58.739Z,22.50
2023-04-10T02:37:26.460Z,22.50
2023-04-10T02:39:55.051Z,19.50
2023-04-10T02:42:22.808Z,21.30
2023-04-10T02:44:50.425Z,16.40
2023-04-10T02:47:18.897Z,19.10
2023-04-10T02:49:47.187Z,21.50
2023-04-10T02:52:14.796Z,19.50
2023-04-10T02:54:42.564Z,18.50
2023-04-10T02:57:10.455Z,19.40
2023-04-10T02:59:38.106Z,21.50
2023-04-10T03:02:05.846Z,21.80
2023-04-10T03:04:33.775Z,18.60
2023-04-10T03:07:02.034Z,20.80
2023-04-10T03:09:29.673Z,19.40
2023-04-10T03:11:57.865Z,20.30
2023-04-10T03:14:27.889Z,20.60
2023-04-10T03:16:55.531Z,21.60
2023-04-10T03:19:23.621Z,21.20
2023-04-10T03:21:51.795Z,20.60
2023-04-10T03:24:19.438Z,21.10
2023-04-10T03:26:47.734Z,19.10
2023-04-10T03:29:19.061Z,19.80
2023-04-10T03:31:46.931Z,20.60
2023-04-10T03:34:14.722Z,21.30
2023-04-10T03:36:42.323Z,19.90
2023-04-10T03:39:09.990Z,19.10
2023-04-10T03:41:37.738Z,20.60
2023-04-10T03:44:05.423Z,21.40
2023-04-10T03:46:33.194Z,21.20
2023-04-10T03:49:01.159Z,21.30
2023-04-10T03:51:28.870Z,21.50
2023-04-10T03:53:56.725Z,20.30
2023-04-10T03:56:24.442Z,19.80
2023-04-10T03:58:52.038Z,20.50
2023-04-10T04:01:19.656Z,19.50
2023-04-10T04:03:47.425Z,16.50
2023-04-10T04:06:15.318Z,20.10
2023-04-10T04:08:43.010Z,20.20
2023-04-10T04:11:11.585Z,16.80
2023-04-10T04:13:39.229Z,19.10
2023-04-10T04:16:07.958Z,18.30
2023-04-10T04:18:35.812Z,19.80
2023-04-10T04:21:03.686Z,15.60
2023-04-10T04:23:31.318Z,19.30
2023-04-10T04:25:59.206Z,20.30
2023-04-10T04:28:28.417Z,18.60
2023-04-10T04:30:57.199Z,21.90
2023-04-10T04:33:24.849Z,20.90
2023-04-10T04:35:52.823Z,21.70
2023-04-10T04:38:20.549Z,17.20
2023-04-10T04:40:48.161Z,19.60
2023-04-10T04:43:16.108Z,17.20
2023-04-10T04:45:43.818Z,20.50
2023-04-10T04:48:11.852Z,17.80
2023-04-10T04:50:42.897Z,18.00
2023-04-10T04:53:10.550Z,14.10
2023-04-10T04:55:38.216Z,19.40
2023-04-10T04:58:05.975Z,19.90
2023-04-10T05:00:33.666Z,20.20
2023-04-10T05:03:01.522Z,17.30
2023-04-10T05:05:29.390Z,19.30
2023-04-10T05:07:57.014Z,21.00
2023-04-10T05:10:24.713Z,20.90
2023-04-10T05:12:52.330Z,18.00
2023-04-10T05:15:19.973Z,18.80
2023-04-10T05:17:51.082Z,20.90
2023-04-10T05:20:19.196Z,20.50
2023-04-10T05:22:46.816Z,19.90
2023-04-10T05:25:14.564Z,20.10
2023-04-10T05:27:42.197Z,18.50
2023-04-10T05:30:10.458Z,18.60
2023-04-10T05:32:38.398Z,20.00
2023-04-10T05:35:06.764Z,16.00
2023-04-10T05:37:34.544Z,19.70
2023-04-10T05:40:02.285Z,17.30
2023-04-10T05:42:30.566Z,20.00
2023-04-10T05:44:58.264Z,18.10
2023-04-10T05:47:26.099Z,19.20
2023-04-10T05:49:53.954Z,18.80
2023-04-10T05:52:21.782Z,19.80
2023-04-10T05:54:49.898Z,19.20
2023-04-10T05:57:17.832Z,16.80
2023-04-10T05:59:45.736Z,18.50
2023-04-10T06:02:13.620Z,19.40
2023-04-10T06:04:41.470Z,20.20
2023-04-10T06:07:09.353Z,19.70
2023-04-10T06:09:36.959Z,20.80
2023-04-10T06:12:04.593Z,20.00
2023-04-10T06:14:32.261Z,18.50
2023-04-10T06:17:00.001Z,14.20
2023-04-10T06:19:27.641Z,20.30
2023-04-10T06:21:55.469Z,19.70
2023-04-10T06:24:23.146Z,17.80
2023-04-10T06:26:50.815Z,19.70
2023-04-10T06:29:18.414Z,20.40
2023-04-10T06:31:48.502Z,19.70
2023-04-10T06:34:16.166Z,16.90
2023-04-10T06:36:43.988Z,20.00
2023-04-10T06:39:11.639Z,16.00
2023-04-10T06:41:39.459Z,19.10
2023-04-10T06:44:07.424Z,18.30
2023-04-10T06:46:35.290Z,18.00
2023-04-10T06:49:03.059Z,17.70
2023-04-10T06:51:31.567Z,19.10
2023-04-10T06:53:59.208Z,14.60
2023-04-10T06:56:27.083Z,19.80
2023-04-10T06:58:55.147Z,18.00
2023-04-10T07:01:23.105Z,17.10
2023-04-10T07:03:50.900Z,19.50
2023-04-10T07:06:18.816Z,17.90
2023-04-10T07:08:47.534Z,21.20
2023-04-10T07:11:15.153Z,20.60
2023-04-10T07:13:42.817Z,19.80
2023-04-10T07:16:11.424Z,19.40
2023-04-10T07:18:41.250Z,20.90
2023-04-10T07:21:13.310Z,19.10
2023-04-10T07:23:41.218Z,17.40
2023-04-10T07:26:08.916Z,15.00
2023-04-10T07:28:36.810Z,20.80
2023-04-10T07:31:04.796Z,19.40
2023-04-10T07:33:32.497Z,14.90
2023-04-10T07:36:02.580Z,17.30
2023-04-10T07:38:30.330Z,23.80
2023-04-10T07:40:58.616Z,18.80
2023-04-10T07:43:26.384Z,15.30
2023-04-10T07:45:54.131Z,18.10
2023-04-10T07:48:21.818Z,20.00
2023-04-10T07:50:50.401Z,19.60
2023-04-10T07:53:18.220Z,21.70
2023-04-10T07:55:48.775Z,19.70
2023-04-10T07:58:16.962Z,18.20
2023-04-10T08:00:45.104Z,23.30
2023-04-10T08:03:13.737Z,17.20
2023-04-10T08:05:41.833Z,22.40
2023-04-10T08:08:09.523Z,20.30
2023-04-10T08:10:40.348Z,20.20
2023-04-10T08:13:08.062Z,22.40
2023-04-10T08:15:36.211Z,21.20
2023-04-10T08:18:03.935Z,21.90
2023-04-10T08:20:37.162Z,22.50
2023-04-10T08:23:17.029Z,21.80
2023-04-10T08:25:48.215Z,20.80
2023-04-10T08:28:16.061Z,21.20
2023-04-10T08:30:43.734Z,18.10
2023-04-10T08:33:11.719Z,22.20
2023-04-10T08:35:39.443Z,19.40
2023-04-10T08:38:14.206Z,19.50
2023-04-10T08:40:44.812Z,19.90
2023-04-10T08:43:12.556Z,19.30
2023-04-10T08:45:41.354Z,18.60
2023-04-10T08:48:09.308Z,20.90
2023-04-10T08:50:37.154Z,20.60
2023-04-10T08:53:08.398Z,20.40
2023-04-10T08:55:36.201Z,20.40
2023-04-10T08:58:04.125Z,19.40
2023-04-10T09:00:34.688Z,16.00
2023-04-10T09:03:05.007Z,16.50
2023-04-10T09:05:32.765Z,18.90
2023-04-10T09:08:00.944Z,17.20
2023-04-10T09:10:29.266Z,18.30
2023-04-10T09:12:56.872Z,17.40
2023-04-10T09:15:24.666Z,17.10
2023-04-10T09:18:00.461Z,16.40
2023-04-10T09:20:31.875Z,18.20
2023-04-10T09:22:59.637Z,16.80
2023-04-10T09:25:33.442Z,16.60
2023-04-10T09:28:08.546Z,16.90
2023-04-10T09:30:40.856Z,17.10
2023-04-10T09:33:25.174Z,17.60
2023-04-10T09:35:53.072Z,19.60
2023-04-10T09:38:21.576Z,15.50
2023-04-10T09:40:49.629Z,18.60
2023-04-10T09:43:26.581Z,15.80
2023-04-10T09:45:56.496Z,17.20
2023-04-10T09:48:24.858Z,15.00
2023-04-10T09:50:52.618Z,16.30
2023-04-10T09:53:20.843Z,15.60
2023-04-10T09:55:49.002Z,16.40
2023-04-10T09:58:17.056Z,17.40
2023-04-10T10:00:46.314Z,17.30
2023-04-10T10:03:18.662Z,21.60
2023-04-10T10:05:48.821Z,21.10
2023-04-10T10:08:16.638Z,19.50
2023-04-10T10:10:48.989Z,21.00
2023-04-10T10:13:25.067Z,20.50
2023-04-10T10:16:13.398Z,16.80
2023-04-10T10:18:47.831Z,17.40
2023-04-10T10:21:16.127Z,21.00
2023-04-10T10:23:44.357Z,20.00
2023-04-10T10:26:12.051Z,20.40
2023-04-10T10:28:40.714Z,21.70
2023-04-10T10:31:08.541Z,25.30
2023-04-10T10:33:37.092Z,22.60
2023-04-10T10:36:05.414Z,19.80
2023-04-10T10:38:33.334Z,18.60
2023-04-10T10:41:16.799Z,18.20
2023-04-10T10:43:44.400Z,18.40
2023-04-10T10:46:19.178Z,18.80
2023-04-10T10:48:57.975Z,20.10
2023-04-10T10:54:31.489Z,20.40
2023-04-10T10:56:59.983Z,19.20
2023-04-10T10:59:46.391Z,19.90
2023-04-10T11:02:18.269Z,21.40
2023-04-10T11:07:15.776Z,17.50
2023-04-10T11:09:53.581Z,19.90
2023-04-10T11:12:24.976Z,21.80
2023-04-10T11:15:04.991Z,21.60
2023-04-10T11:17:51.437Z,19.40
2023-04-10T11:20:22.041Z,20.00
2023-04-10T11:23:11.271Z,19.90
2023-04-10T11:25:57.010Z,18.80
2023-04-10T11:28:37.708Z,19.00
2023-04-10T11:31:26.175Z,18.70
2023-04-10T11:34:00.128Z,19.90
2023-04-10T11:36:27.862Z,21.40
2023-04-10T11:39:03.018Z,16.60
2023-04-10T11:41:34.840Z,18.20
2023-04-10T11:44:04.251Z,19.60
2023-04-10T11:46:32.397Z,18.50
2023-04-10T11:49:01.789Z,19.20
2023-04-10T11:51:29.681Z,19.00
2023-04-10T11:54:10.338Z,17.80
2023-04-10T11:56:39.069Z,21.40
2023-04-10T11:59:11.198Z,22.00
2023-04-10T12:04:17.837Z,19.20
2023-04-10T12:06:47.155Z,19.80
2023-04-10T12:09:16.471Z,19.00
2023-04-10T12:12:04.401Z,17.50
2023-04-10T12:14:35.229Z,17.30
2023-04-10T12:17:03.577Z,19.90
2023-04-10T12:19:31.567Z,15.80
2023-04-10T12:21:59.969Z,15.10
2023-04-10T12:24:50.696Z,14.50
2023-04-10T12:27:22.027Z,14.10
2023-04-10T12:29:51.227Z,15.10
2023-04-10T12:32:19.098Z,13.00
2023-04-10T12:34:50.837Z,14.60
2023-04-10T12:37:19.295Z,15.80
2023-04-10T12:39:46.960Z,40.40
2023-04-10T12:42:16.607Z,22.50
2023-04-10T12:44:58.960Z,16.60
2023-04-10T12:47:27.978Z,14.10
2023-04-10T12:50:10.221Z,14.80
2023-04-10T12:52:39.976Z,13.80
2023-04-10T12:55:12.166Z,12.80
2023-04-10T13:00:09.718Z,12.70
2023-04-10T13:02:38.260Z,15.30
2023-04-10T13:05:06.730Z,14.10
2023-04-10T13:07:34.415Z,14.90
2023-04-10T13:10:02.120Z,13.60
2023-04-10T13:12:30.203Z,12.50
2023-04-10T13:14:57.826Z,14.20
2023-04-10T13:17:25.767Z,15.20
2023-04-10T13:19:53.593Z,13.30
2023-04-10T13:22:21.317Z,12.50
2023-04-10T13:24:49.144Z,12.40
2023-04-10T13:27:16.855Z,13.80
2023-04-10T13:29:44.586Z,15.10
2023-04-10T13:32:12.381Z,14.60
2023-04-10T13:34:40.061Z,13.80
2023-04-10T13:37:09.360Z,13.80
2023-04-10T13:39:37.083Z,14.80
2023-04-10T13:42:04.753Z,12.40
2023-04-10T13:44:32.514Z,14.00
2023-04-10T13:47:00.237Z,13.50
2023-04-10T13:49:30.581Z,11.00
2023-04-10T13:51:58.366Z,11.50
2023-04-10T13:54:26.588Z,13.10
2023-04-10T13:56:54.946Z,11.40
2023-04-10T13:59:22.780Z,12.00
2023-04-10T14:01:52.533Z,13.00
2023-04-10T14:04:20.438Z,11.10
2023-04-10T14:06:49.404Z,12.20
2023-04-10T14:09:18.316Z,11.90
2023-04-10T14:11:46.090Z,17.80
2023-04-10T14:14:13.738Z,35.90
2023-04-10T14:16:41.633Z,19.20
2023-04-10T14:19:09.418Z,16.40
2023-04-10T14:21:37.468Z,16.50
2023-04-10T14:24:05.238Z,11.70
2023-04-10T14:26:32.863Z,14.20
2023-04-10T14:29:00.710Z,14.10
2023-04-10T14:31:29.586Z,13.90
2023-04-10T14:33:57.418Z,13.70
2023-04-10T14:36:25.539Z,13.60
2023-04-10T14:38:53.626Z,16.10
2023-04-10T14:41:21.630Z,17.60
2023-04-10T14:43:49.310Z,23.20
2023-04-10T14:46:17.454Z,15.90
2023-04-10T14:48:45.194Z,13.00
2023-04-10T14:51:13.234Z,12.00
2023-04-10T14:53:40.905Z,12.70
2023-04-10T14:56:12.456Z,15.00
2023-04-10T14:58:40.441Z,10.90
2023-04-10T15:01:12.081Z,13.70
2023-04-10T15:03:40.105Z,14.80
2023-04-10T15:06:08.171Z,12.50
2023-04-10T15:08:35.863Z,15.60
2023-04-10T15:11:05.298Z,12.50
2023-04-10T15:13:33.161Z,12.70
2023-04-10T15:16:01.084Z,11.50
2023-04-10T15:18:29.125Z,15.60
2023-04-10T15:20:57.392Z,12.10
2023-04-10T15:23:26.786Z,21.50
2023-04-10T15:25:55.126Z,14.20
2023-04-10T15:28:23.338Z,17.10
2023-04-10T15:30:51.216Z,18.70
2023-04-10T15:33:19.112Z,20.10
2023-04-10T15:35:48.130Z,11.90
2023-04-10T15:38:16.044Z,14.90
2023-04-10T15:40:43.697Z,14.00
2023-04-10T15:43:12.882Z,13.20
2023-04-10T15:45:40.509Z,12.20
2023-04-10T15:48:08.239Z,11.70
2023-04-10T15:50:40.515Z,12.80
2023-04-10T15:53:08.152Z,13.70
2023-04-10T15:55:40.048Z,10.00
2023-04-10T15:58:08.116Z,10.10
2023-04-10T16:00:36.891Z,10.00
2023-04-10T16:03:05.981Z,10.70
2023-04-10T16:05:33.947Z,10.20
2023-04-10T16:08:02.814Z,10.40
2023-04-10T16:10:30.703Z,11.10
2023-04-10T16:13:04.057Z,13.50
2023-04-10T16:15:36.308Z,12.90
2023-04-10T16:18:05.082Z,9.80
2023-04-10T16:20:32.982Z,10.20
2023-04-10T16:23:01.104Z,9.40
2023-04-10T16:25:29.078Z,10.30
2023-04-10T16:27:57.170Z,12.80
2023-04-10T16:30:24.891Z,11.80
2023-04-10T16:32:53.005Z,11.90
2023-04-10T16:35:22.413Z,11.90
2023-04-10T16:37:50.475Z,14.40
2023-04-10T16:40:18.088Z,14.50
2023-04-10T16:42:45.800Z,12.30
2023-04-10T16:45:13.943Z,10.70
2023-04-10T16:47:43.987Z,12.30
2023-04-10T16:50:12.009Z,12.40
2023-04-10T16:52:40.269Z,7.70
2023-04-10T16:55:08.380Z,5.70
2023-04-10T16:57:36.562Z,5.90
2023-04-10T17:00:05.061Z,6.70
2023-04-10T17:02:33.064Z,5.80
2023-04-10T17:05:01.166Z,6.00
2023-04-10T17:07:28.881Z,5.60
2023-04-10T17:09:56.671Z,6.00
2023-04-10T17:12:24.767Z,5.90
2023-04-10T17:14:52.502Z,6.00
2023-04-10T17:17:20.445Z,6.10
2023-04-10T17:19:49.313Z,6.30
2023-04-10T17:22:17.509Z,7.00
2023-04-10T17:24:46.195Z,8.20
2023-04-10T17:27:14.437Z,10.00
2023-04-10T17:29:42.638Z,10.10
2023-04-10T17:32:11.073Z,9.10
2023-04-10T17:34:39.002Z,11.30
2023-04-10T17:37:06.689Z,11.70
2023-04-10T17:39:34.807Z,12.30
2023-04-10T17:42:03.009Z,11.00
2023-04-10T17:44:31.554Z,6.20
2023-04-10T17:46:59.664Z,5.50
2023-04-10T17:49:27.957Z,6.00
2023-04-10T17:51:55.965Z,7.20
2023-04-10T17:54:24.420Z,6.30
2023-04-10T17:56:52.758Z,7.10
2023-04-10T17:59:20.818Z,3.80
2023-04-10T18:01:49.115Z,4.20
2023-04-10T18:04:17.291Z,5.50
2023-04-10T18:06:45.457Z,3.80
2023-04-10T18:09:13.679Z,3.50
2023-04-10T18:11:41.594Z,3.90
2023-04-10T18:14:10.049Z,3.50
2023-04-10T18:16:37.915Z,3.20
2023-04-10T18:19:05.829Z,5.80
2023-04-10T18:21:34.902Z,8.20
2023-04-10T18:24:03.750Z,7.00
2023-04-10T18:26:33.418Z,17.60
2023-04-10T18:29:01.474Z,12.50
2023-04-10T18:31:29.826Z,16.40
2023-04-10T18:34:06.959Z,14.20
2023-04-10T18:36:36.235Z,15.00
2023-04-10T18:39:04.862Z,13.10
2023-04-10T18:41:32.815Z,13.50
2023-04-10T18:44:05.272Z,16.10
2023-04-10T18:46:33.936Z,14.50
2023-04-10T18:49:03.230Z,19.50
2023-04-10T18:51:33.451Z,20.70
2023-04-10T18:54:06.218Z,20.80
2023-04-10T18:56:35.750Z,19.60
2023-04-10T18:59:04.473Z,20.50
2023-04-10T19:01:32.864Z,22.00
2023-04-10T19:04:01.121Z,20.10
2023-04-10T19:06:30.400Z,16.10
2023-04-10T19:08:58.461Z,12.00
2023-04-10T19:11:26.125Z,8.80
2023-04-10T19:13:54.686Z,10.10
2023-04-10T19:16:23.343Z,10.70
2023-04-10T19:18:53.891Z,9.80
2023-04-10T19:21:22.111Z,9.80
2023-04-10T19:23:50.617Z,9.30
2023-04-10T19:26:20.101Z,8.10
2023-04-10T19:28:47.732Z,7.70
2023-04-10T19:31:15.811Z,7.20
2023-04-10T19:33:44.106Z,5.80
2023-04-10T19:36:12.313Z,6.80
2023-04-10T19:38:40.912Z,8.80
2023-04-10T19:41:15.558Z,11.30
2023-04-10T19:43:43.290Z,9.90
2023-04-10T19:46:17.909Z,9.90
2023-04-10T19:48:46.350Z,9.10
2023-04-10T19:51:14.767Z,7.60
2023-04-10T19:53:42.832Z,9.40
2023-04-10T19:56:10.862Z,11.20
2023-04-10T19:58:41.435Z,12.80
2023-04-10T20:01:10.365Z,14.60
2023-04-10T20:03:38.811Z,17.40
2023-04-10T20:06:07.595Z,18.30
2023-04-10T20:08:35.855Z,15.30
2023-04-10T20:11:06.395Z,13.40
2023-04-10T20:13:41.503Z,11.40
2023-04-10T20:16:09.207Z,10.30
2023-04-10T20:18:37.146Z,11.30
2023-04-10T20:21:07.526Z,12.00
2023-04-10T20:23:35.185Z,12.30
2023-04-10T20:26:02.902Z,12.90
2023-04-10T20:28:31.680Z,10.10
2023-04-10T20:30:59.325Z,10.00
2023-04-10T20:33:26.990Z,9.60
2023-04-10T20:35:54.709Z,9.60
2023-04-10T20:38:22.389Z,9.10
2023-04-10T20:40:50.319Z,10.20
2023-04-10T20:43:18.803Z,10.20
2023-04-10T20:45:46.410Z,11.60
2023-04-10T20:48:14.138Z,12.00
2023-04-10T20:50:43.728Z,12.20
2023-04-10T20:53:12.795Z,15.00
2023-04-10T20:55:40.686Z,16.30
2023-04-10T20:58:08.464Z,16.30
2023-04-10T21:00:36.313Z,16.40
2023-04-10T21:03:04.284Z,15.30
2023-04-10T21:05:32.155Z,16.90
2023-04-10T21:07:59.762Z,15.60
2023-04-10T21:10:27.377Z,19.10
2023-04-10T21:12:55.043Z,21.00
2023-04-10T21:15:22.726Z,29.30
2023-04-10T21:17:50.464Z,23.50
2023-04-10T21:20:18.191Z,24.00
2023-04-10T21:22:45.821Z,22.70
2023-04-10T21:25:13.470Z,23.90
2023-04-10T21:27:41.057Z,22.00
2023-04-10T21:30:09.194Z,23.70
2023-04-10T21:32:37.107Z,22.20
2023-04-10T21:35:05.506Z,23.30
2023-04-10T21:37:33.188Z,23.40
2023-04-10T21:40:00.836Z,22.90
2023-04-10T21:42:28.537Z,29.20
2023-04-10T21:44:56.182Z,29.60
2023-04-10T21:47:23.863Z,32.40
2023-04-10T21:49:51.521Z,45.00
2023-04-10T21:52:19.141Z,56.30
2023-04-10T21:54:46.815Z,43.40
2023-04-10T21:57:14.450Z,44.20
2023-04-10T21:59:42.105Z,48.00
2023-04-10T22:02:10.759Z,50.10
2023-04-10T22:04:47.848Z,43.70
2023-04-10T22:07:21.494Z,37.00
2023-04-10T22:09:49.206Z,35.30
2023-04-10T22:12:16.997Z,37.10
2023-04-10T22:14:44.662Z,36.00
2023-04-10T22:17:12.365Z,36.20
2023-04-10T22:19:40.353Z,35.70
2023-04-10T22:22:08.166Z,40.20
2023-04-10T22:24:35.816Z,36.70
2023-04-10T22:27:03.534Z,34.90
2023-04-10T22:29:31.175Z,36.80
2023-04-10T22:31:58.904Z,36.60
2023-04-10T22:34:26.529Z,35.90
2023-04-10T22:36:54.178Z,36.90
2023-04-10T22:39:21.888Z,39.00
2023-04-10T22:41:49.587Z,42.10
2023-04-10T22:44:17.576Z,44.30
2023-04-10T22:46:48.223Z,46.60
2023-04-10T22:49:17.200Z,48.70
2023-04-10T22:51:45.920Z,50.20
2023-04-10T22:54:15.904Z,56.10
2023-04-10T22:56:44.227Z,61.00
2023-04-10T22:59:12.187Z,58.50
2023-04-10T23:01:39.905Z,57.60
2023-04-10T23:04:07.786Z,54.30
2023-04-10T23:06:35.441Z,51.00
2023-04-10T23:09:03.450Z,49.10
2023-04-10T23:11:31.137Z,44.60
2023-04-10T23:13:58.828Z,41.40
2023-04-10T23:16:27.144Z,36.90
2023-04-10T23:18:55.308Z,34.90
2023-04-10T23:21:23.085Z,35.60
2023-04-10T23:23:50.789Z,36.80
2023-04-10T23:26:18.447Z,34.70
2023-04-10T23:28:46.942Z,32.10
2023-04-10T23:31:14.920Z,29.30
2023-04-10T23:33:42.739Z,27.20
2023-04-10T23:36:10.510Z,27.00
2023-04-10T23:38:38.150Z,27.30
2023-04-10T23:41:07.128Z,28.80
2023-04-10T23:43:34.797Z,32.10
2023-04-10T23:46:02.456Z,27.30
2023-04-10T23:48:30.197Z,27.70
2023-04-10T23:51:05.359Z,29.90
2023-04-10T23:53:33.052Z,29.50
2023-04-10T23:56:01.057Z,30.10
2023-04-10T23:58:28.698Z,30.00
